sensor_id;sensor_type;location;lat;lon;timestamp;P1;durP1;ratioP1;P2;durP2;ratioP2
26036;SDS011;13810;48.376;10.944;2023-05-10T00:00:20;2.22;;;1.70;;
26036;SDS011;13810;48.376;10.944;2023-05-10T00:00:52;1.95;;;1.85;;
26036;SDS011;13810;48.376;10.944;2023-05-10T00:01:23;2.67;;;1.70;;
26036;SDS011;13810;48.376;10.944;2023-05-10T00:01:54;1.75;;;1.65;;
26036;SDS011;13810;48.376;10.944;2023-05-10T00:02:24;3.08;;;2.08;;
26036;SDS011;13810;48.376;10.944;2023-05-10T00:02:55;3.17;;;1.90;;
26036;SDS011;13810;48.376;10.944;2023-05-10T00:03:26;2.30;;;1.90;;
26036;SDS011;13810;48.376;10.944;2023-05-10T00:03:57;2.53;;;2.20;;
26036;SDS011;13810;48.376;10.944;2023-05-10T00:04:27;2.38;;;2.08;;
26036;SDS011;13810;48.376;10.944;2023-05-10T00:04:58;2.80;;;2.13;;
26036;SDS011;13810;48.376;10.944;2023-05-10T00:05:28;4.03;;;2.10;;
26036;SDS011;13810;48.376;10.944;2023-05-10T00:05:59;2.42;;;1.88;;
26036;SDS011;13810;48.376;10.944;2023-05-10T00:06:30;3.78;;;2.65;;
26036;SDS011;13810;48.376;10.944;2023-05-10T00:07:01;4.68;;;2.20;;
26036;SDS011;13810;48.376;10.944;2023-05-10T00:07:32;5.13;;;1.80;;
26036;SDS011;13810;48.376;10.944;2023-05-10T00:08:03;4.45;;;1.50;;
26036;SDS011;13810;48.376;10.944;2023-05-10T00:08:33;5.65;;;1.73;;
26036;SDS011;13810;48.376;10.944;2023-05-10T00:09:04;2.45;;;1.67;;
26036;SDS011;13810;48.376;10.944;2023-05-10T00:09:35;2.40;;;1.38;;
26036;SDS011;13810;48.376;10.944;2023-05-10T00:10:05;2.42;;;1.83;;
26036;SDS011;13810;48.376;10.944;2023-05-10T00:10:36;3.53;;;2.33;;
26036;SDS011;13810;48.376;10.944;2023-05-10T00:11:07;2.47;;;2.13;;
26036;SDS011;13810;48.376;10.944;2023-05-10T00:11:38;3.55;;;1.90;;
26036;SDS011;13810;48.376;10.944;2023-05-10T00:12:08;2.35;;;2.00;;
26036;SDS011;13810;48.376;10.944;2023-05-10T00:12:39;2.20;;;1.88;;
26036;SDS011;13810;48.376;10.944;2023-05-10T00:13:09;4.35;;;1.95;;
26036;SDS011;13810;48.376;10.944;2023-05-10T00:13:40;2.65;;;1.60;;
26036;SDS011;13810;48.376;10.944;2023-05-10T00:14:11;2.42;;;2.00;;
26036;SDS011;13810;48.376;10.944;2023-05-10T00:14:42;2.22;;;2.00;;
26036;SDS011;13810;48.376;10.944;2023-05-10T00:15:12;2.20;;;1.77;;
26036;SDS011;13810;48.376;10.944;2023-05-10T00:15:43;2.33;;;1.60;;
26036;SDS011;13810;48.376;10.944;2023-05-10T00:16:13;2.72;;;2.13;;
26036;SDS011;13810;48.376;10.944;2023-05-10T00:16:44;3.10;;;1.88;;
26036;SDS011;13810;48.376;10.944;2023-05-10T00:17:15;3.42;;;1.50;;
26036;SDS011;13810;48.376;10.944;2023-05-10T00:17:46;2.15;;;1.95;;
26036;SDS011;13810;48.376;10.944;2023-05-10T00:18:16;4.18;;;1.75;;
26036;SDS011;13810;48.376;10.944;2023-05-10T00:18:47;1.92;;;1.40;;
26036;SDS011;13810;48.376;10.944;2023-05-10T00:19:17;2.35;;;1.92;;
26036;SDS011;13810;48.376;10.944;2023-05-10T00:19:48;3.15;;;1.63;;
26036;SDS011;13810;48.376;10.944;2023-05-10T00:20:19;2.88;;;1.83;;
26036;SDS011;13810;48.376;10.944;2023-05-10T00:20:49;3.63;;;2.08;;
26036;SDS011;13810;48.376;10.944;2023-05-10T00:21:21;4.15;;;1.90;;
26036;SDS011;13810;48.376;10.944;2023-05-10T00:21:51;2.85;;;2.05;;
26036;SDS011;13810;48.376;10.944;2023-05-10T00:22:22;2.65;;;1.90;;
26036;SDS011;13810;48.376;10.944;2023-05-10T00:22:53;2.22;;;1.70;;
26036;SDS011;13810;48.376;10.944;2023-05-10T00:23:23;3.28;;;1.85;;
26036;SDS011;13810;48.376;10.944;2023-05-10T00:23:54;3.75;;;1.73;;
26036;SDS011;13810;48.376;10.944;2023-05-10T00:24:25;4.38;;;1.98;;
26036;SDS011;13810;48.376;10.944;2023-05-10T00:24:55;4.15;;;1.90;;
26036;SDS011;13810;48.376;10.944;2023-05-10T00:25:26;1.83;;;1.63;;
26036;SDS011;13810;48.376;10.944;2023-05-10T00:25:57;2.85;;;1.50;;
26036;SDS011;13810;48.376;10.944;2023-05-10T00:26:27;3.50;;;2.03;;
26036;SDS011;13810;48.376;10.944;2023-05-10T00:26:58;4.35;;;2.03;;
26036;SDS011;13810;48.376;10.944;2023-05-10T00:27:28;2.55;;;2.17;;
26036;SDS011;13810;48.376;10.944;2023-05-10T00:27:59;3.40;;;1.80;;
26036;SDS011;13810;48.376;10.944;2023-05-10T00:28:31;2.65;;;1.60;;
26036;SDS011;13810;48.376;10.944;2023-05-10T00:29:02;2.83;;;1.85;;
26036;SDS011;13810;48.376;10.944;2023-05-10T00:29:32;3.58;;;1.90;;
26036;SDS011;13810;48.376;10.944;2023-05-10T00:30:03;2.00;;;1.80;;
26036;SDS011;13810;48.376;10.944;2023-05-10T00:30:34;3.75;;;1.80;;
26036;SDS011;13810;48.376;10.944;2023-05-10T00:31:05;2.58;;;2.00;;
26036;SDS011;13810;48.376;10.944;2023-05-10T00:31:36;2.95;;;1.90;;
26036;SDS011;13810;48.376;10.944;2023-05-10T00:32:06;2.13;;;1.67;;
26036;SDS011;13810;48.376;10.944;2023-05-10T00:32:37;2.10;;;1.90;;
26036;SDS011;13810;48.376;10.944;2023-05-10T00:33:08;1.63;;;1.45;;
26036;SDS011;13810;48.376;10.944;2023-05-10T00:33:39;2.83;;;1.90;;
26036;SDS011;13810;48.376;10.944;2023-05-10T00:34:09;2.90;;;2.03;;
26036;SDS011;13810;48.376;10.944;2023-05-10T00:34:40;3.45;;;2.00;;
26036;SDS011;13810;48.376;10.944;2023-05-10T00:35:11;1.95;;;1.25;;
26036;SDS011;13810;48.376;10.944;2023-05-10T00:35:42;3.05;;;1.58;;
26036;SDS011;13810;48.376;10.944;2023-05-10T00:36:12;1.70;;;1.40;;
26036;SDS011;13810;48.376;10.944;2023-05-10T00:36:43;2.83;;;2.00;;
26036;SDS011;13810;48.376;10.944;2023-05-10T00:37:14;5.72;;;1.77;;
26036;SDS011;13810;48.376;10.944;2023-05-10T00:37:44;2.25;;;1.75;;
26036;SDS011;13810;48.376;10.944;2023-05-10T00:38:15;2.25;;;2.03;;
26036;SDS011;13810;48.376;10.944;2023-05-10T00:38:45;4.15;;;1.73;;
26036;SDS011;13810;48.376;10.944;2023-05-10T00:39:16;2.10;;;1.70;;
26036;SDS011;13810;48.376;10.944;2023-05-10T00:39:47;5.10;;;1.65;;
26036;SDS011;13810;48.376;10.944;2023-05-10T00:40:17;2.25;;;1.80;;
26036;SDS011;13810;48.376;10.944;2023-05-10T00:40:48;2.63;;;1.80;;
26036;SDS011;13810;48.376;10.944;2023-05-10T00:41:18;5.28;;;1.80;;
26036;SDS011;13810;48.376;10.944;2023-05-10T00:41:51;2.42;;;1.80;;
26036;SDS011;13810;48.376;10.944;2023-05-10T00:42:21;2.38;;;1.30;;
26036;SDS011;13810;48.376;10.944;2023-05-10T00:42:52;3.22;;;1.40;;
26036;SDS011;13810;48.376;10.944;2023-05-10T00:43:22;3.25;;;2.00;;
26036;SDS011;13810;48.376;10.944;2023-05-10T00:43:53;3.28;;;1.85;;
26036;SDS011;13810;48.376;10.944;2023-05-10T00:44:24;1.90;;;1.70;;
26036;SDS011;13810;48.376;10.944;2023-05-10T00:44:54;4.47;;;2.10;;
26036;SDS011;13810;48.376;10.944;2023-05-10T00:45:25;1.50;;;1.38;;
26036;SDS011;13810;48.376;10.944;2023-05-10T00:45:57;3.13;;;1.70;;
26036;SDS011;13810;48.376;10.944;2023-05-10T00:46:27;2.70;;;1.60;;
26036;SDS011;13810;48.376;10.944;2023-05-10T00:46:59;1.98;;;1.77;;
26036;SDS011;13810;48.376;10.944;2023-05-10T00:47:30;1.88;;;1.63;;
26036;SDS011;13810;48.376;10.944;2023-05-10T00:48:02;2.78;;;1.33;;
26036;SDS011;13810;48.376;10.944;2023-05-10T00:48:33;1.55;;;1.33;;
26036;SDS011;13810;48.376;10.944;2023-05-10T00:49:04;3.10;;;1.67;;
26036;SDS011;13810;48.376;10.944;2023-05-10T00:49:36;5.18;;;1.73;;
26036;SDS011;13810;48.376;10.944;2023-05-10T00:50:07;3.53;;;1.33;;
26036;SDS011;13810;48.376;10.944;2023-05-10T00:50:39;1.85;;;1.35;;
26036;SDS011;13810;48.376;10.944;2023-05-10T00:51:10;2.92;;;1.58;;
26036;SDS011;13810;48.376;10.944;2023-05-10T00:51:40;2.50;;;1.60;;
26036;SDS011;13810;48.376;10.944;2023-05-10T00:52:12;1.55;;;1.45;;
26036;SDS011;13810;48.376;10.944;2023-05-10T00:52:43;2.38;;;1.42;;
26036;SDS011;13810;48.376;10.944;2023-05-10T00:53:15;1.60;;;1.30;;
26036;SDS011;13810;48.376;10.944;2023-05-10T00:53:46;1.80;;;1.48;;
26036;SDS011;13810;48.376;10.944;2023-05-10T00:54:18;3.22;;;1.30;;
26036;SDS011;13810;48.376;10.944;2023-05-10T00:54:50;1.90;;;1.73;;
26036;SDS011;13810;48.376;10.944;2023-05-10T00:55:22;1.40;;;1.30;;
26036;SDS011;13810;48.376;10.944;2023-05-10T00:55:52;2.58;;;1.30;;
26036;SDS011;13810;48.376;10.944;2023-05-10T00:56:23;2.30;;;1.42;;
26036;SDS011;13810;48.376;10.944;2023-05-10T00:56:55;14.32;;;1.67;;
26036;SDS011;13810;48.376;10.944;2023-05-10T00:57:27;1.80;;;1.45;;
26036;SDS011;13810;48.376;10.944;2023-05-10T00:57:57;1.52;;;1.42;;
26036;SDS011;13810;48.376;10.944;2023-05-10T00:58:28;2.10;;;1.30;;
26036;SDS011;13810;48.376;10.944;2023-05-10T00:59:00;1.60;;;1.30;;
26036;SDS011;13810;48.376;10.944;2023-05-10T00:59:32;2.15;;;1.55;;
26036;SDS011;13810;48.376;10.944;2023-05-10T01:00:03;2.00;;;1.33;;
26036;SDS011;13810;48.376;10.944;2023-05-10T01:00:34;1.27;;;1.17;;
26036;SDS011;13810;48.376;10.944;2023-05-10T01:01:07;1.35;;;1.20;;
26036;SDS011;13810;48.376;10.944;2023-05-10T01:01:39;2.65;;;1.20;;
26036;SDS011;13810;48.376;10.944;2023-05-10T01:02:10;2.15;;;1.30;;
26036;SDS011;13810;48.376;10.944;2023-05-10T01:02:41;3.25;;;1.48;;
26036;SDS011;13810;48.376;10.944;2023-05-10T01:03:12;1.83;;;1.63;;
26036;SDS011;13810;48.376;10.944;2023-05-10T01:03:43;1.45;;;1.30;;
26036;SDS011;13810;48.376;10.944;2023-05-10T01:04:14;1.30;;;1.20;;
26036;SDS011;13810;48.376;10.944;2023-05-10T01:04:45;4.10;;;1.48;;
26036;SDS011;13810;48.376;10.944;2023-05-10T01:05:16;1.48;;;1.38;;
26036;SDS011;13810;48.376;10.944;2023-05-10T01:05:46;1.90;;;1.55;;
26036;SDS011;13810;48.376;10.944;2023-05-10T01:06:17;2.03;;;1.23;;
26036;SDS011;13810;48.376;10.944;2023-05-10T01:06:48;1.30;;;1.20;;
26036;SDS011;13810;48.376;10.944;2023-05-10T01:07:18;6.47;;;1.35;;
26036;SDS011;13810;48.376;10.944;2023-05-10T01:07:49;1.75;;;1.38;;
26036;SDS011;13810;48.376;10.944;2023-05-10T01:08:19;1.58;;;1.40;;
26036;SDS011;13810;48.376;10.944;2023-05-10T01:08:50;3.95;;;1.50;;
26036;SDS011;13810;48.376;10.944;2023-05-10T01:09:21;1.60;;;1.30;;
26036;SDS011;13810;48.376;10.944;2023-05-10T01:09:52;1.40;;;1.27;;
26036;SDS011;13810;48.376;10.944;2023-05-10T01:10:23;1.75;;;1.65;;
26036;SDS011;13810;48.376;10.944;2023-05-10T01:10:54;2.38;;;1.25;;
26036;SDS011;13810;48.376;10.944;2023-05-10T01:11:25;2.35;;;1.45;;
26036;SDS011;13810;48.376;10.944;2023-05-10T01:11:56;1.77;;;1.45;;
26036;SDS011;13810;48.376;10.944;2023-05-10T01:12:27;1.75;;;1.63;;
26036;SDS011;13810;48.376;10.944;2023-05-10T01:12:58;1.67;;;1.33;;
26036;SDS011;13810;48.376;10.944;2023-05-10T01:13:33;1.73;;;1.55;;
26036;SDS011;13810;48.376;10.944;2023-05-10T01:14:06;1.13;;;1.02;;
26036;SDS011;13810;48.376;10.944;2023-05-10T01:14:37;4.43;;;1.42;;
26036;SDS011;13810;48.376;10.944;2023-05-10T01:15:08;3.28;;;1.20;;
26036;SDS011;13810;48.376;10.944;2023-05-10T01:15:41;1.05;;;0.95;;
26036;SDS011;13810;48.376;10.944;2023-05-10T01:16:11;1.38;;;1.17;;
26036;SDS011;13810;48.376;10.944;2023-05-10T01:16:43;1.95;;;0.95;;
26036;SDS011;13810;48.376;10.944;2023-05-10T01:17:15;1.98;;;1.35;;
26036;SDS011;13810;48.376;10.944;2023-05-10T01:17:46;2.10;;;1.20;;
26036;SDS011;13810;48.376;10.944;2023-05-10T01:18:18;1.25;;;1.15;;
26036;SDS011;13810;48.376;10.944;2023-05-10T01:18:51;1.23;;;1.08;;
26036;SDS011;13810;48.376;10.944;2023-05-10T01:19:23;3.22;;;1.27;;
26036;SDS011;13810;48.376;10.944;2023-05-10T01:19:56;1.33;;;1.23;;
26036;SDS011;13810;48.376;10.944;2023-05-10T01:20:27;1.17;;;1.08;;
26036;SDS011;13810;48.376;10.944;2023-05-10T01:21:59;1.67;;;1.00;;
26036;SDS011;13810;48.376;10.944;2023-05-10T01:23:10;1.85;;;1.30;;
26036;SDS011;13810;48.376;10.944;2023-05-10T01:26:07;0.98;;;0.93;;
26036;SDS011;13810;48.376;10.944;2023-05-10T01:30:00;4.00;;;1.42;;
26036;SDS011;13810;48.376;10.944;2023-05-10T01:32:01;1.17;;;0.90;;
26036;SDS011;13810;48.376;10.944;2023-05-10T01:34:02;2.60;;;1.50;;
26036;SDS011;13810;48.376;10.944;2023-05-10T01:36:55;1.63;;;1.00;;
26036;SDS011;13810;48.376;10.944;2023-05-10T01:39:18;1.17;;;1.05;;
26036;SDS011;13810;48.376;10.944;2023-05-10T01:42:15;1.10;;;1.00;;
26036;SDS011;13810;48.376;10.944;2023-05-10T01:42:53;1.83;;;1.35;;
26036;SDS011;13810;48.376;10.944;2023-05-10T01:43:31;0.82;;;0.82;;
26036;SDS011;13810;48.376;10.944;2023-05-10T01:44:11;1.50;;;1.05;;
26036;SDS011;13810;48.376;10.944;2023-05-10T01:46:40;2.42;;;1.02;;
26036;SDS011;13810;48.376;10.944;2023-05-10T01:47:15;1.45;;;1.00;;
26036;SDS011;13810;48.376;10.944;2023-05-10T01:48:05;0.80;;;0.80;;
26036;SDS011;13810;48.376;10.944;2023-05-10T01:48:39;2.42;;;1.35;;
26036;SDS011;13810;48.376;10.944;2023-05-10T01:49:28;1.17;;;1.08;;
26036;SDS011;13810;48.376;10.944;2023-05-10T01:50:02;2.08;;;0.85;;
26036;SDS011;13810;48.376;10.944;2023-05-10T01:50:35;1.40;;;1.08;;
26036;SDS011;13810;48.376;10.944;2023-05-10T01:51:08;1.30;;;1.20;;
26036;SDS011;13810;48.376;10.944;2023-05-10T01:51:47;1.10;;;1.00;;
26036;SDS011;13810;48.376;10.944;2023-05-10T01:52:41;1.00;;;0.90;;
26036;SDS011;13810;48.376;10.944;2023-05-10T01:53:17;0.90;;;0.85;;
26036;SDS011;13810;48.376;10.944;2023-05-10T01:53:50;1.25;;;1.00;;
26036;SDS011;13810;48.376;10.944;2023-05-10T01:54:24;1.42;;;1.23;;
26036;SDS011;13810;48.376;10.944;2023-05-10T01:55:00;1.77;;;1.15;;
26036;SDS011;13810;48.376;10.944;2023-05-10T01:55:35;1.27;;;0.88;;
26036;SDS011;13810;48.376;10.944;2023-05-10T01:56:19;1.42;;;1.17;;
26036;SDS011;13810;48.376;10.944;2023-05-10T01:56:55;1.42;;;1.10;;
26036;SDS011;13810;48.376;10.944;2023-05-10T01:57:32;0.80;;;0.73;;
26036;SDS011;13810;48.376;10.944;2023-05-10T01:58:08;1.05;;;1.00;;
26036;SDS011;13810;48.376;10.944;2023-05-10T01:58:43;1.13;;;1.02;;
26036;SDS011;13810;48.376;10.944;2023-05-10T01:59:18;1.00;;;0.90;;
26036;SDS011;13810;48.376;10.944;2023-05-10T01:59:50;1.33;;;1.23;;
26036;SDS011;13810;48.376;10.944;2023-05-10T02:00:21;1.33;;;0.90;;
26036;SDS011;13810;48.376;10.944;2023-05-10T02:00:53;0.85;;;0.85;;
26036;SDS011;13810;48.376;10.944;2023-05-10T02:01:25;1.05;;;0.88;;
26036;SDS011;13810;48.376;10.944;2023-05-10T02:01:57;2.67;;;1.33;;
26036;SDS011;13810;48.376;10.944;2023-05-10T02:02:30;1.25;;;1.02;;
26036;SDS011;13810;48.376;10.944;2023-05-10T02:03:07;1.15;;;0.88;;
26036;SDS011;13810;48.376;10.944;2023-05-10T02:03:39;1.45;;;1.00;;
26036;SDS011;13810;48.376;10.944;2023-05-10T02:04:13;1.08;;;0.90;;
26036;SDS011;13810;48.376;10.944;2023-05-10T02:04:47;1.05;;;0.95;;
26036;SDS011;13810;48.376;10.944;2023-05-10T02:05:20;0.80;;;0.80;;
26036;SDS011;13810;48.376;10.944;2023-05-10T02:05:53;1.20;;;1.10;;
26036;SDS011;13810;48.376;10.944;2023-05-10T02:06:26;0.82;;;0.82;;
26036;SDS011;13810;48.376;10.944;2023-05-10T02:08:42;1.00;;;0.88;;
26036;SDS011;13810;48.376;10.944;2023-05-10T02:09:19;1.05;;;0.98;;
26036;SDS011;13810;48.376;10.944;2023-05-10T02:09:51;0.75;;;0.75;;
26036;SDS011;13810;48.376;10.944;2023-05-10T02:10:21;2.25;;;1.00;;
26036;SDS011;13810;48.376;10.944;2023-05-10T02:10:54;1.00;;;0.90;;
26036;SDS011;13810;48.376;10.944;2023-05-10T02:11:26;0.73;;;0.73;;
26036;SDS011;13810;48.376;10.944;2023-05-10T02:11:58;0.75;;;0.73;;
26036;SDS011;13810;48.376;10.944;2023-05-10T02:12:35;1.58;;;1.05;;
26036;SDS011;13810;48.376;10.944;2023-05-10T02:13:07;1.05;;;0.80;;
26036;SDS011;13810;48.376;10.944;2023-05-10T02:13:40;1.30;;;1.20;;
26036;SDS011;13810;48.376;10.944;2023-05-10T02:14:13;1.10;;;0.90;;
26036;SDS011;13810;48.376;10.944;2023-05-10T02:14:45;1.00;;;1.00;;
26036;SDS011;13810;48.376;10.944;2023-05-10T02:15:18;1.23;;;0.90;;
26036;SDS011;13810;48.376;10.944;2023-05-10T02:15:52;0.85;;;0.82;;
26036;SDS011;13810;48.376;10.944;2023-05-10T02:16:24;1.20;;;1.00;;
26036;SDS011;13810;48.376;10.944;2023-05-10T02:16:57;2.55;;;0.90;;
26036;SDS011;13810;48.376;10.944;2023-05-10T02:17:30;0.95;;;0.95;;
26036;SDS011;13810;48.376;10.944;2023-05-10T02:18:05;1.80;;;0.90;;
26036;SDS011;13810;48.376;10.944;2023-05-10T02:18:37;0.90;;;0.90;;
26036;SDS011;13810;48.376;10.944;2023-05-10T02:19:09;1.08;;;0.70;;
26036;SDS011;13810;48.376;10.944;2023-05-10T02:19:41;2.63;;;0.90;;
26036;SDS011;13810;48.376;10.944;2023-05-10T02:20:14;0.90;;;0.90;;
26036;SDS011;13810;48.376;10.944;2023-05-10T02:20:46;4.22;;;1.27;;
26036;SDS011;13810;48.376;10.944;2023-05-10T02:21:17;0.80;;;0.80;;
26036;SDS011;13810;48.376;10.944;2023-05-10T02:21:50;1.58;;;0.80;;
26036;SDS011;13810;48.376;10.944;2023-05-10T02:22:21;1.17;;;0.75;;
26036;SDS011;13810;48.376;10.944;2023-05-10T02:22:53;0.90;;;0.90;;
26036;SDS011;13810;48.376;10.944;2023-05-10T02:23:25;5.47;;;1.08;;
26036;SDS011;13810;48.376;10.944;2023-05-10T02:23:57;2.63;;;1.27;;
26036;SDS011;13810;48.376;10.944;2023-05-10T02:24:30;1.10;;;1.00;;
26036;SDS011;13810;48.376;10.944;2023-05-10T02:25:03;0.95;;;0.80;;
26036;SDS011;13810;48.376;10.944;2023-05-10T02:25:35;1.13;;;1.02;;
26036;SDS011;13810;48.376;10.944;2023-05-10T02:26:07;0.90;;;0.90;;
26036;SDS011;13810;48.376;10.944;2023-05-10T02:26:38;0.60;;;0.60;;
26036;SDS011;13810;48.376;10.944;2023-05-10T02:27:10;4.35;;;1.05;;
26036;SDS011;13810;48.376;10.944;2023-05-10T02:27:42;1.10;;;1.00;;
26036;SDS011;13810;48.376;10.944;2023-05-10T02:28:14;1.15;;;0.93;;
26036;SDS011;13810;48.376;10.944;2023-05-10T02:28:47;2.42;;;1.00;;
26036;SDS011;13810;48.376;10.944;2023-05-10T02:29:19;0.75;;;0.75;;
26036;SDS011;13810;48.376;10.944;2023-05-10T02:29:50;1.08;;;0.90;;
26036;SDS011;13810;48.376;10.944;2023-05-10T02:30:22;0.88;;;0.73;;
26036;SDS011;13810;48.376;10.944;2023-05-10T02:30:53;1.13;;;1.02;;
26036;SDS011;13810;48.376;10.944;2023-05-10T02:31:25;1.77;;;0.65;;
26036;SDS011;13810;48.376;10.944;2023-05-10T02:31:56;0.85;;;0.75;;
26036;SDS011;13810;48.376;10.944;2023-05-10T02:32:28;0.82;;;0.80;;
26036;SDS011;13810;48.376;10.944;2023-05-10T02:33:00;0.70;;;0.70;;
26036;SDS011;13810;48.376;10.944;2023-05-10T02:33:34;1.30;;;0.80;;
26036;SDS011;13810;48.376;10.944;2023-05-10T02:34:05;0.70;;;0.70;;
26036;SDS011;13810;48.376;10.944;2023-05-10T02:34:38;0.88;;;0.88;;
26036;SDS011;13810;48.376;10.944;2023-05-10T02:35:09;1.30;;;0.90;;
26036;SDS011;13810;48.376;10.944;2023-05-10T02:35:41;1.05;;;0.95;;
26036;SDS011;13810;48.376;10.944;2023-05-10T02:36:12;1.95;;;0.80;;
26036;SDS011;13810;48.376;10.944;2023-05-10T02:36:43;0.80;;;0.80;;
26036;SDS011;13810;48.376;10.944;2023-05-10T02:37:14;0.75;;;0.75;;
26036;SDS011;13810;48.376;10.944;2023-05-10T02:37:46;0.60;;;0.60;;
26036;SDS011;13810;48.376;10.944;2023-05-10T02:38:19;1.00;;;0.90;;
26036;SDS011;13810;48.376;10.944;2023-05-10T02:38:51;2.85;;;0.90;;
26036;SDS011;13810;48.376;10.944;2023-05-10T02:39:23;0.77;;;0.73;;
26036;SDS011;13810;48.376;10.944;2023-05-10T02:39:56;0.75;;;0.73;;
26036;SDS011;13810;48.376;10.944;2023-05-10T02:40:28;0.73;;;0.70;;
26036;SDS011;13810;48.376;10.944;2023-05-10T02:40:59;0.80;;;0.80;;
26036;SDS011;13810;48.376;10.944;2023-05-10T02:41:31;2.58;;;0.90;;
26036;SDS011;13810;48.376;10.944;2023-05-10T02:42:02;0.80;;;0.80;;
26036;SDS011;13810;48.376;10.944;2023-05-10T02:42:35;0.73;;;0.70;;
26036;SDS011;13810;48.376;10.944;2023-05-10T02:43:12;0.85;;;0.57;;
26036;SDS011;13810;48.376;10.944;2023-05-10T02:43:44;0.65;;;0.65;;
26036;SDS011;13810;48.376;10.944;2023-05-10T02:44:17;0.85;;;0.70;;
26036;SDS011;13810;48.376;10.944;2023-05-10T02:44:50;0.95;;;0.70;;
26036;SDS011;13810;48.376;10.944;2023-05-10T02:45:23;0.40;;;0.40;;
26036;SDS011;13810;48.376;10.944;2023-05-10T02:45:58;0.90;;;0.80;;
26036;SDS011;13810;48.376;10.944;2023-05-10T02:46:28;2.15;;;0.65;;
26036;SDS011;13810;48.376;10.944;2023-05-10T02:47:00;0.50;;;0.50;;
26036;SDS011;13810;48.376;10.944;2023-05-10T02:47:30;0.57;;;0.57;;
26036;SDS011;13810;48.376;10.944;2023-05-10T02:48:01;0.60;;;0.50;;
26036;SDS011;13810;48.376;10.944;2023-05-10T02:48:32;0.52;;;0.52;;
26036;SDS011;13810;48.376;10.944;2023-05-10T02:49:03;1.02;;;0.77;;
26036;SDS011;13810;48.376;10.944;2023-05-10T02:49:34;2.65;;;0.70;;
26036;SDS011;13810;48.376;10.944;2023-05-10T02:50:05;0.68;;;0.60;;
26036;SDS011;13810;48.376;10.944;2023-05-10T02:50:36;0.50;;;0.50;;
26036;SDS011;13810;48.376;10.944;2023-05-10T02:51:09;0.57;;;0.57;;
26036;SDS011;13810;48.376;10.944;2023-05-10T02:51:45;1.02;;;0.63;;
26036;SDS011;13810;48.376;10.944;2023-05-10T02:52:24;1.70;;;0.95;;
26036;SDS011;13810;48.376;10.944;2023-05-10T02:53:01;2.17;;;0.60;;
26036;SDS011;13810;48.376;10.944;2023-05-10T02:53:46;0.60;;;0.60;;
26036;SDS011;13810;48.376;10.944;2023-05-10T02:54:20;0.55;;;0.55;;
26036;SDS011;13810;48.376;10.944;2023-05-10T02:54:58;0.82;;;0.77;;
26036;SDS011;13810;48.376;10.944;2023-05-10T02:55:35;0.47;;;0.47;;
26036;SDS011;13810;48.376;10.944;2023-05-10T02:56:11;0.63;;;0.63;;
26036;SDS011;13810;48.376;10.944;2023-05-10T02:56:51;0.60;;;0.60;;
26036;SDS011;13810;48.376;10.944;2023-05-10T02:57:32;0.40;;;0.40;;
26036;SDS011;13810;48.376;10.944;2023-05-10T02:58:04;0.93;;;0.88;;
26036;SDS011;13810;48.376;10.944;2023-05-10T02:58:34;0.50;;;0.50;;
26036;SDS011;13810;48.376;10.944;2023-05-10T02:59:05;3.00;;;0.40;;
26036;SDS011;13810;48.376;10.944;2023-05-10T02:59:36;0.50;;;0.50;;
26036;SDS011;13810;48.376;10.944;2023-05-10T03:00:07;0.50;;;0.50;;
26036;SDS011;13810;48.376;10.944;2023-05-10T03:00:38;0.98;;;0.73;;
26036;SDS011;13810;48.376;10.944;2023-05-10T03:01:09;0.65;;;0.65;;
26036;SDS011;13810;48.376;10.944;2023-05-10T03:01:39;0.50;;;0.50;;
26036;SDS011;13810;48.376;10.944;2023-05-10T03:02:12;0.75;;;0.50;;
26036;SDS011;13810;48.376;10.944;2023-05-10T03:02:43;0.47;;;0.45;;
26036;SDS011;13810;48.376;10.944;2023-05-10T03:03:13;0.35;;;0.35;;
26036;SDS011;13810;48.376;10.944;2023-05-10T03:03:44;0.30;;;0.30;;
26036;SDS011;13810;48.376;10.944;2023-05-10T03:04:15;0.50;;;0.50;;
26036;SDS011;13810;48.376;10.944;2023-05-10T03:04:45;0.50;;;0.50;;
26036;SDS011;13810;48.376;10.944;2023-05-10T03:05:16;0.52;;;0.52;;
26036;SDS011;13810;48.376;10.944;2023-05-10T03:05:47;1.52;;;0.45;;
26036;SDS011;13810;48.376;10.944;2023-05-10T03:06:17;0.68;;;0.60;;
26036;SDS011;13810;48.376;10.944;2023-05-10T03:06:48;1.77;;;0.60;;
26036;SDS011;13810;48.376;10.944;2023-05-10T03:07:19;1.15;;;0.60;;
26036;SDS011;13810;48.376;10.944;2023-05-10T03:07:51;0.65;;;0.50;;
26036;SDS011;13810;48.376;10.944;2023-05-10T03:08:23;0.93;;;0.43;;
26036;SDS011;13810;48.376;10.944;2023-05-10T03:08:54;0.52;;;0.52;;
26036;SDS011;13810;48.376;10.944;2023-05-10T03:09:25;0.63;;;0.57;;
26036;SDS011;13810;48.376;10.944;2023-05-10T03:09:55;0.40;;;0.40;;
26036;SDS011;13810;48.376;10.944;2023-05-10T03:10:27;1.45;;;0.70;;
26036;SDS011;13810;48.376;10.944;2023-05-10T03:12:07;0.45;;;0.43;;
26036;SDS011;13810;48.376;10.944;2023-05-10T03:12:51;0.52;;;0.52;;
26036;SDS011;13810;48.376;10.944;2023-05-10T03:13:46;0.35;;;0.35;;
26036;SDS011;13810;48.376;10.944;2023-05-10T03:14:49;0.98;;;0.52;;
26036;SDS011;13810;48.376;10.944;2023-05-10T03:15:31;0.63;;;0.32;;
26036;SDS011;13810;48.376;10.944;2023-05-10T03:16:10;0.50;;;0.50;;
26036;SDS011;13810;48.376;10.944;2023-05-10T03:16:46;0.60;;;0.60;;
26036;SDS011;13810;48.376;10.944;2023-05-10T03:17:35;0.32;;;0.32;;
26036;SDS011;13810;48.376;10.944;2023-05-10T03:18:54;0.50;;;0.50;;
26036;SDS011;13810;48.376;10.944;2023-05-10T03:20:26;0.40;;;0.40;;
26036;SDS011;13810;48.376;10.944;2023-05-10T03:21:04;0.30;;;0.30;;
26036;SDS011;13810;48.376;10.944;2023-05-10T03:21:37;0.40;;;0.40;;
26036;SDS011;13810;48.376;10.944;2023-05-10T03:22:13;0.40;;;0.40;;
26036;SDS011;13810;48.376;10.944;2023-05-10T03:22:53;0.43;;;0.38;;
26036;SDS011;13810;48.376;10.944;2023-05-10T03:23:27;3.28;;;0.30;;
26036;SDS011;13810;48.376;10.944;2023-05-10T03:24:05;0.60;;;0.40;;
26036;SDS011;13810;48.376;10.944;2023-05-10T03:24:37;0.47;;;0.47;;
26036;SDS011;13810;48.376;10.944;2023-05-10T03:25:11;0.38;;;0.38;;
26036;SDS011;13810;48.376;10.944;2023-05-10T03:25:42;0.68;;;0.60;;
26036;SDS011;13810;48.376;10.944;2023-05-10T03:26:15;0.30;;;0.30;;
26036;SDS011;13810;48.376;10.944;2023-05-10T03:26:50;1.35;;;0.40;;
26036;SDS011;13810;48.376;10.944;2023-05-10T03:27:23;0.40;;;0.40;;
26036;SDS011;13810;48.376;10.944;2023-05-10T03:27:56;0.38;;;0.38;;
26036;SDS011;13810;48.376;10.944;2023-05-10T03:28:28;0.47;;;0.47;;
26036;SDS011;13810;48.376;10.944;2023-05-10T03:28:59;0.50;;;0.43;;
26036;SDS011;13810;48.376;10.944;2023-05-10T03:29:31;0.30;;;0.20;;
26036;SDS011;13810;48.376;10.944;2023-05-10T03:30:02;0.32;;;0.30;;
26036;SDS011;13810;48.376;10.944;2023-05-10T03:30:34;0.90;;;0.40;;
26036;SDS011;13810;48.376;10.944;2023-05-10T03:31:05;1.55;;;0.30;;
26036;SDS011;13810;48.376;10.944;2023-05-10T03:31:37;0.30;;;0.20;;
26036;SDS011;13810;48.376;10.944;2023-05-10T03:32:09;1.17;;;0.82;;
26036;SDS011;13810;48.376;10.944;2023-05-10T03:32:39;0.90;;;0.52;;
26036;SDS011;13810;48.376;10.944;2023-05-10T03:33:10;0.95;;;0.57;;
26036;SDS011;13810;48.376;10.944;2023-05-10T03:33:45;1.02;;;0.40;;
26036;SDS011;13810;48.376;10.944;2023-05-10T03:34:23;0.40;;;0.40;;
26036;SDS011;13810;48.376;10.944;2023-05-10T03:34:54;0.20;;;0.20;;
26036;SDS011;13810;48.376;10.944;2023-05-10T03:35:25;0.30;;;0.30;;
26036;SDS011;13810;48.376;10.944;2023-05-10T03:35:56;1.40;;;0.38;;
26036;SDS011;13810;48.376;10.944;2023-05-10T03:36:26;0.43;;;0.22;;